Flight Track Log - Related Links

Times and Time Zones

All times are in EDT time to prevent confusion due to time zone crossing. See the CHQ6336 flight status page for this flight to view local times or setup timezone preferences in your user account.

Time Position Orientation Groundspeed Altitude Reporting Facility
EDT Latitude Longitude Course Direction KTS MPH feet Rate Location/Type
Sat 03:00:27 PM 40.5667 -73.8000 232° Southwest 229 264 2,900  Level New York TRACON
Sat 03:01:27 PM 40.5333 -73.8667 237° Southwest 251 289 5,700 2,700 Climbing New York TRACON
Sat 03:02:00 PM 40.4082 -74.1377 229° Southwest  Level FlightAware Approximate
Sat 03:02:27 PM 40.4833 -73.9500 232° Southwest 263 303 8,300  Level New York TRACON
Sat 03:03:00 PM 40.3492 -74.2292 232° Southwest  Level FlightAware Approximate
Sat 03:03:27 PM 40.4500 -74.0333 242° Southwest 279 321 10,600  Level New York TRACON
Sat 03:04:00 PM 40.2926 -74.3235 232° Southwest  Level FlightAware Approximate
Sat 03:05:00 PM 40.2403 -74.4163 232° Southwest  Level FlightAware Approximate
Sat 03:05:06 PM 40.3708 -74.1761 234° Southwest 307 353 13,100  Level New York Center
Sat 03:06:07 PM 40.3244 -74.2639 235° Southwest 317 365 14,400 1,279 Climbing New York Center
Sat 03:07:08 PM 40.2669 -74.3750 236° Southwest 334 384 15,700 1,091 Climbing New York Center
Sat 03:08:08 PM 40.2117 -74.4808 236° Southwest 350 403 16,600 850 Climbing New York Center
Sat 03:09:08 PM 40.1931 -74.5994 258° West 356 410 17,400 712 Climbing New York Center
Sat 03:10:06 PM 40.1825 -74.7319 264° West 362 417 18,000 303 Climbing New York Center
Sat 03:11:07 PM 40.1711 -74.8864 265° West 382 440 18,000  Level New York Center
Sat 03:12:08 PM 40.1603 -75.0106 264° West 389 448 18,000  Level New York Center
Sat 03:13:06 PM 40.1486 -75.1619 264° West 383 441 18,000  Level New York Center
Sat 03:14:06 PM 40.1350 -75.2994 263° West 383 441 18,000  Level New York Center
Sat 03:15:08 PM 40.0969 -75.4192 247° West 370 426 18,000  Level New York Center
Sat 03:16:09 PM 40.0306 -75.5178 229° Southwest 363 418 18,000  Level New York Center
Sat 03:17:07 PM 39.9639 -75.6189 229° Southwest 370 426 18,000  Level New York Center
Sat 03:18:07 PM 39.9053 -75.7258 234° Southwest 370 426 18,000 -403 Level New York Center
Sat 03:19:06 PM 39.8444 -75.8297 233° Southwest 370 426 17,200 -1,311 Descending New York Center
Sat 03:20:06 PM 39.7900 -75.9339 236° Southwest 365 420 15,400 -1,891 Descending New York Center
Sat 03:21:51 PM 39.7000 -76.1000 235° Southwest 314 361 12,000 -1,927 Descending Potomac TRACON
Sat 03:22:51 PM 39.6500 -76.2000 237° Southwest 291 335 10,100 -1,750 Descending Potomac TRACON
Sat 03:23:51 PM 39.6167 -76.2833 243° Southwest 265 305 8,500 -1,785 Descending Potomac TRACON
Sat 03:24:52 PM 39.5833 -76.3500 237° Southwest 262 302 6,500 -1,930 Descending Potomac TRACON
Sat 03:25:46 PM 39.5333 -76.4333 232° Southwest 255 293 4,800 -1,789 Descending Potomac TRACON
Sat 03:26:46 PM 39.5000 -76.5000 237° Southwest 250 288 3,100 -850 Descending Potomac TRACON
Sat 03:27:53 PM 39.4500 -76.5667 226° Southwest 246 283 3,000 -47 Descending Potomac TRACON
Sat 03:28:53 PM 39.4000 -76.6333 226° Southwest 239 275 3,000  Level Potomac TRACON
Sat 03:29:47 PM 39.3500 -76.6833 218° Southwest 233 268 3,000 -300 Level Potomac TRACON
Sat 03:30:53 PM 39.3000 -76.7167 207° Southwest 184 212 2,400 -545 Descending Potomac TRACON
Sat 03:31:48 PM 39.2667 -76.7333 201° Southwest 153 176 1,900 -574 Descending Potomac TRACON
Sat 03:32:48 PM 39.2333 -76.7167 159° South 127 146 1,300 -626 Descending Potomac TRACON
Sat 03:33:43 PM 39.2167 -76.6833 123° Southeast 125 144 700 -655 Descending Potomac TRACON

Login

Don't have an account? Register now (free) for customized features, flight alerts, and more!